Impacts TAF Board INFO
FOR SITUATIONAL AWARENESS. NOT TO BE USED FOR FLIGHT PLANNING PURPOSES.
IDs:

KPHX - Phoenix/Sky Harbor, AZ, US

Issued at 0237 UTC 25 May 2018
Updated at 0442 UTC 25 May 2018
Potential Impact None Slight Moderate High
Time0351Z 25/05Z 25/06Z 25/07Z 25/08Z 25/09Z 25/10Z 25/11Z 25/12Z 25/13Z 25/14Z 25/15Z 25/16Z 25/17Z>>
Type OBS PRVL PRVL PRVL PRVL PRVL PRVL PRVL PRVL PRVL PRVL PRVL PRVL PRVL
VIS 10 >6 >6 >6 >6 >6 >6 >6 >6 >6 >6 >6 >6 >6
CIG -- -- -- -- -- -- -- -- -- -- -- -- -- --
Cover CLR SKC SKC SKC SKC SKC SKC SKC SKC SKC SKC SKC SKC SKC
FltCat VFR VFR VFR VFR VFR VFR VFR VFR VFR VFR VFR VFR VFR VFR
WX -- -- -- -- -- -- -- -- -- -- -- -- -- --
WDir 270 290 VRB VRB VRB VRB VRB 100 100 100 100 100 100 190
WSpd 11 14 5 5 5 5 5 5 5 5 5 5 5 8
WGst -- -- -- -- -- -- -- -- -- -- -- -- -- --

Raw TAF
KPHX 250237Z 2503/2606 29014KT P6SM SKC
  FM250600 VRB05KT P6SM SKC
  FM251100 10005KT P6SM SKC
  FM251700 19008KT P6SM SKC
  FM260000 25010KT P6SM SKC


Raw METAR
KPHX 250351Z 27011KT 10SM CLR 33/M04 A2988 RMK AO2 SLP098 T03331039
KPHX 250251Z 29012KT 10SM FEW150 FEW250 34/M06 A2986 RMK AO2 SLP093 T03391061 53004
KPHX 250151Z 28012KT 10SM CLR 35/M05 A2985 RMK AO2 SLP089 T03501050

METAR Board
Radar Display
Forecast Discussion

FOR SITUATIONAL AWARENESS. NOT TO BE USED FOR FLIGHT PLANNING PURPOSES.